createdAt,value
2019-04-14T11:18:49.330Z,3.27
2019-04-14T11:20:52.187Z,3.10
2019-04-14T11:20:52.354Z,3.03
2019-04-14T11:21:46.726Z,3.13
2019-04-14T11:22:46.720Z,3.24
2019-04-14T11:23:46.769Z,3.28
2019-04-14T11:24:47.508Z,3.27
2019-04-14T11:25:46.799Z,3.06
2019-04-14T11:26:46.712Z,2.98
2019-04-14T11:27:46.699Z,2.76
2019-04-14T11:28:46.730Z,2.76
2019-04-14T11:29:47.489Z,2.88
2019-04-14T11:30:46.674Z,2.91
2019-04-14T11:31:46.673Z,3.07
2019-04-14T11:32:46.714Z,3.20
2019-04-14T11:33:46.669Z,3.18
2019-04-14T11:34:46.680Z,3.15
2019-04-14T11:35:46.671Z,2.94
2019-04-14T11:36:47.490Z,2.88
2019-04-14T11:37:46.693Z,2.89
2019-04-14T11:38:46.639Z,2.98
2019-04-14T11:39:46.648Z,2.91
2019-04-14T11:40:46.630Z,2.89
2019-04-14T11:41:47.489Z,2.91
2019-04-14T11:42:52.327Z,3.02
2019-04-14T11:43:46.637Z,3.13
2019-04-14T11:44:46.610Z,3.07
2019-04-14T11:45:46.619Z,2.97
2019-04-14T11:46:46.608Z,3.10
2019-04-14T11:47:47.562Z,3.25
2019-04-14T11:50:29.356Z,2.76
2019-04-14T11:51:29.309Z,2.84
2019-04-14T11:52:29.336Z,2.97
2019-04-14T11:53:29.328Z,3.00
2019-04-14T11:54:29.295Z,2.81
2019-04-14T11:55:29.294Z,3.07
2019-04-14T11:56:29.335Z,2.94
2019-04-14T11:57:29.294Z,2.97
2019-04-14T11:58:29.481Z,2.88
2019-04-14T11:59:29.289Z,2.87
2019-04-14T12:00:29.276Z,3.02
2019-04-14T12:01:29.261Z,3.28
2019-04-14T12:02:29.284Z,3.30
2019-04-14T12:03:32.100Z,3.25
2019-04-14T12:04:29.268Z,3.24
2019-04-14T12:05:29.246Z,3.12
2019-04-14T12:06:29.249Z,3.18
2019-04-14T12:07:29.268Z,3.13
2019-04-14T12:08:29.227Z,3.03
2019-04-14T12:09:29.231Z,3.18
2019-04-14T12:10:29.268Z,3.18
2019-04-14T12:11:29.220Z,3.18
2019-04-14T12:12:29.213Z,3.23
2019-04-14T12:13:29.246Z,3.13
2019-04-14T12:14:29.261Z,2.97
2019-04-14T12:15:29.204Z,2.97
2019-04-14T12:16:29.197Z,2.95
2019-04-14T12:17:29.208Z,2.94
2019-04-14T12:18:29.211Z,2.88
2019-04-14T12:19:29.206Z,2.88
2019-04-14T12:20:29.183Z,2.97
2019-04-14T12:21:29.828Z,2.98
2019-04-14T12:22:29.174Z,2.98
2019-04-14T12:23:29.166Z,2.95
2019-04-14T12:24:29.200Z,2.89
2019-04-14T12:25:29.800Z,2.82
2019-04-14T12:26:29.146Z,2.82
2019-04-14T12:27:29.147Z,2.81
2019-04-14T12:28:29.171Z,2.77
2019-04-14T12:29:30.350Z,2.92
2019-04-14T12:30:29.176Z,2.97
2019-04-14T12:31:29.183Z,2.97
2019-04-14T12:32:29.119Z,2.98
2019-04-14T12:33:29.106Z,3.00
2019-04-14T12:34:29.172Z,2.89
2019-04-14T12:35:29.107Z,2.88
2019-04-14T12:36:29.098Z,3.06
2019-04-14T12:37:29.087Z,3.07
2019-04-14T12:38:29.124Z,2.98
2019-04-14T12:39:29.087Z,2.98
2019-04-14T12:40:29.079Z,3.09
2019-04-14T12:41:29.109Z,3.03
2019-04-14T12:42:29.067Z,2.98
2019-04-14T12:43:29.095Z,3.06
2019-04-14T12:44:29.102Z,3.00
2019-04-14T12:45:29.106Z,3.15
2019-04-14T12:46:29.041Z,3.02
2019-04-14T12:47:29.042Z,3.02
2019-04-14T12:48:29.039Z,3.03
2019-04-14T12:49:29.069Z,2.89
2019-04-14T12:50:29.059Z,2.89
2019-04-14T12:51:29.038Z,2.98
2019-04-14T12:52:29.012Z,3.05
2019-04-14T12:53:29.006Z,3.06
2019-04-14T12:54:29.024Z,3.18
2019-04-14T12:55:29.000Z,3.16
2019-04-14T12:56:29.030Z,3.23
2019-04-14T12:57:28.994Z,3.10
2019-04-14T12:58:28.991Z,3.24
2019-04-14T12:59:29.019Z,3.25
2019-04-14T13:00:28.973Z,3.25
2019-04-14T13:01:28.981Z,3.18
2019-04-14T13:02:28.969Z,3.20
2019-04-14T13:03:28.991Z,3.20
2019-04-14T13:04:28.994Z,3.25
2019-04-14T13:05:29.117Z,3.21
2019-04-14T13:06:28.955Z,3.09
2019-04-14T13:07:28.945Z,3.20
2019-04-14T13:08:28.970Z,3.24
2019-04-14T13:09:28.929Z,3.24
2019-04-14T13:10:28.967Z,3.21
2019-04-14T13:11:29.803Z,3.36
2019-04-14T13:12:28.925Z,3.44
2019-04-14T13:13:28.930Z,3.36
2019-04-14T13:14:28.936Z,3.31
2019-04-14T13:15:28.909Z,3.43
2019-04-14T13:16:28.940Z,3.43
2019-04-14T13:17:28.900Z,3.40
2019-04-14T13:18:28.902Z,3.40
2019-04-14T13:19:28.919Z,3.42
2019-04-14T13:20:28.908Z,3.42
2019-04-14T13:21:28.875Z,3.36
2019-04-14T13:22:34.033Z,3.39
2019-04-14T13:23:28.874Z,3.40
2019-04-14T13:24:28.870Z,3.44
2019-04-14T13:25:28.860Z,3.39
2019-04-14T13:26:28.887Z,3.43
2019-04-14T13:27:28.856Z,3.36
2019-04-14T13:28:28.843Z,3.42
2019-04-14T13:29:28.842Z,3.31
2019-04-14T13:30:28.864Z,3.40
2019-04-14T13:31:28.836Z,3.39
2019-04-14T13:32:35.781Z,3.50
2019-04-14T13:33:28.859Z,3.43
2019-04-14T13:34:28.819Z,3.52
2019-04-14T13:35:28.848Z,3.43
2019-04-14T13:36:28.818Z,3.43
2019-04-14T13:37:28.799Z,3.46
2019-04-14T13:38:28.818Z,3.50
2019-04-14T13:39:28.827Z,3.53
2019-04-14T13:40:28.788Z,3.36
2019-04-14T13:41:28.790Z,3.40
2019-04-14T13:42:28.786Z,3.40
2019-04-14T13:43:28.773Z,3.40
2019-04-14T13:44:28.801Z,3.43
2019-04-14T13:45:28.800Z,3.42
2019-04-14T13:46:28.757Z,3.43
2019-04-14T13:47:28.753Z,3.30
2019-04-14T13:48:28.751Z,3.42
2019-04-14T13:49:28.745Z,3.27
2019-04-14T13:50:28.774Z,3.39
2019-04-14T13:51:28.799Z,3.53
2019-04-14T13:52:30.926Z,3.39
2019-04-14T13:53:28.725Z,3.47
2019-04-14T13:54:28.751Z,3.42
2019-04-14T13:55:28.767Z,3.44
2019-04-14T13:56:28.710Z,3.50
2019-04-14T13:57:28.736Z,3.52
2019-04-14T13:58:28.724Z,3.53
2019-04-14T13:59:28.796Z,3.44
2019-04-14T14:00:28.726Z,3.61
2019-04-14T14:01:28.686Z,3.53
2019-04-14T14:02:28.678Z,3.54
2019-04-14T14:03:28.677Z,3.49
2019-04-14T14:04:28.686Z,3.52
2019-04-14T14:05:28.689Z,3.52
2019-04-14T14:06:28.698Z,3.70
2019-04-14T14:07:28.657Z,3.61
2019-04-14T14:08:28.655Z,3.61
2019-04-14T14:09:28.641Z,3.68
2019-04-14T14:10:28.677Z,3.64
2019-04-14T14:11:28.647Z,3.67
2019-04-14T14:12:28.659Z,3.68
2019-04-14T14:13:28.635Z,3.62
2019-04-14T14:14:28.667Z,3.65
2019-04-14T14:15:28.620Z,3.60
2019-04-14T14:16:28.615Z,3.64
2019-04-14T14:17:28.612Z,3.52
2019-04-14T14:18:28.609Z,3.43
2019-04-14T14:19:28.626Z,3.54
2019-04-14T14:20:28.632Z,3.46
2019-04-14T14:21:28.634Z,3.39
2019-04-14T14:22:28.590Z,3.43
2019-04-14T14:23:28.577Z,3.40
2019-04-14T14:24:28.579Z,3.39
2019-04-14T14:25:28.572Z,3.42
2019-04-14T14:26:28.599Z,3.50
2019-04-14T14:27:28.602Z,3.42
2019-04-14T14:28:28.563Z,3.34
2019-04-14T14:29:28.559Z,3.27
2019-04-14T14:30:28.581Z,3.42
2019-04-14T14:31:28.542Z,3.34
2019-04-14T14:32:28.553Z,3.44
2019-04-14T14:33:28.574Z,3.49
2019-04-14T14:34:28.524Z,3.46
2019-04-14T14:35:28.523Z,3.25
2019-04-14T14:36:28.523Z,3.24
2019-04-14T14:37:28.516Z,3.20
2019-04-14T14:38:28.514Z,3.28
2019-04-14T14:39:28.539Z,3.33
2019-04-14T14:40:28.530Z,3.40
2019-04-14T14:41:28.495Z,3.33
2019-04-14T14:42:28.492Z,3.39
2019-04-14T14:43:28.487Z,3.42
2019-04-14T14:44:28.477Z,3.27
2019-04-14T14:45:28.510Z,3.34
2019-04-14T14:46:28.513Z,3.44
2019-04-14T14:47:28.467Z,3.44
2019-04-14T14:48:28.458Z,3.57
2019-04-14T14:49:28.459Z,3.60
2019-04-14T14:50:28.456Z,3.47
2019-04-14T14:51:28.484Z,3.49
2019-04-14T14:52:28.444Z,3.31
2019-04-14T14:53:28.441Z,3.31
2019-04-14T14:54:28.448Z,3.34
2019-04-14T14:55:28.433Z,3.25
2019-04-14T14:56:28.423Z,3.36
2019-04-14T14:57:28.456Z,3.34
2019-04-14T14:58:28.413Z,3.25
2019-04-14T14:59:28.444Z,3.47
2019-04-14T15:00:28.406Z,3.39
2019-04-14T15:01:28.390Z,3.43
2019-04-14T15:02:28.403Z,3.24
2019-04-14T15:03:28.428Z,3.24
2019-04-14T15:04:28.382Z,3.31
2019-04-14T15:05:28.379Z,3.21
2019-04-14T15:06:28.426Z,3.25
2019-04-14T15:07:28.403Z,3.06
2019-04-14T15:08:28.367Z,3.03
2019-04-14T15:09:28.375Z,3.12
2019-04-14T15:10:28.364Z,3.13
2019-04-14T15:11:28.360Z,3.16
2019-04-14T15:12:28.398Z,3.13
2019-04-14T15:13:28.376Z,3.12
2019-04-14T15:14:28.342Z,3.21
2019-04-14T15:15:28.329Z,3.20
2019-04-14T15:16:28.321Z,3.12
2019-04-14T15:17:28.318Z,3.15
2019-04-14T15:18:28.357Z,3.05
2019-04-14T15:19:28.313Z,3.15
2019-04-14T15:20:29.295Z,3.21
2019-04-14T15:21:28.299Z,3.02
2019-04-14T15:22:28.321Z,3.10
2019-04-14T15:23:28.289Z,2.98
2019-04-14T15:24:28.321Z,3.02
2019-04-14T15:25:28.279Z,3.13
2019-04-14T15:26:28.272Z,3.12
2019-04-14T15:27:28.266Z,3.07
2019-04-14T15:28:28.269Z,3.20
2019-04-14T15:29:28.312Z,3.13
2019-04-14T15:30:28.255Z,3.18
2019-04-14T15:31:28.241Z,3.06
2019-04-14T15:32:28.275Z,3.18
2019-04-14T15:33:28.250Z,3.18
2019-04-14T15:34:28.233Z,3.21
2019-04-14T15:35:28.228Z,3.23
2019-04-14T15:36:28.234Z,3.18
2019-04-14T15:37:28.228Z,3.24
2019-04-14T15:38:28.242Z,3.16
2019-04-14T15:39:28.213Z,3.13
2019-04-14T15:40:28.240Z,3.15
2019-04-14T15:41:28.195Z,3.05
2019-04-14T15:42:28.188Z,3.20
2019-04-14T15:43:28.225Z,3.21
2019-04-14T15:44:28.217Z,3.27
2019-04-14T15:45:28.172Z,3.27
2019-04-14T15:46:28.201Z,3.27
2019-04-14T15:47:28.161Z,3.30
2019-04-14T15:48:28.192Z,3.25
2019-04-14T15:49:28.147Z,3.25
2019-04-14T15:50:28.153Z,3.30
2019-04-14T15:51:28.148Z,3.27
2019-04-14T15:52:28.137Z,3.28
2019-04-14T15:53:37.855Z,3.25
2019-04-14T15:54:28.130Z,3.20
2019-04-14T15:55:28.152Z,3.25
2019-04-14T15:56:28.114Z,3.07
2019-04-14T15:57:28.118Z,3.07
2019-04-14T15:58:28.170Z,3.13
2019-04-14T15:59:29.577Z,3.15
2019-04-14T16:00:28.099Z,3.23
2019-04-14T16:01:28.110Z,3.15
2019-04-14T16:02:28.093Z,3.09
2019-04-14T16:03:28.123Z,2.98
2019-04-14T16:04:28.081Z,3.07
2019-04-14T16:05:28.100Z,3.02
2019-04-14T16:06:28.068Z,3.05
2019-04-14T16:07:28.072Z,3.02
2019-04-14T16:08:28.088Z,3.20
2019-04-14T16:09:28.056Z,3.16
2019-04-14T16:10:28.101Z,3.13
2019-04-14T16:11:28.043Z,3.18
2019-04-14T16:12:28.034Z,3.15
2019-04-14T16:13:28.418Z,3.00
2019-04-14T16:14:28.029Z,3.07
2019-04-14T16:15:28.020Z,3.05
2019-04-14T16:16:28.064Z,3.02
2019-04-14T16:17:28.007Z,3.13
2019-04-14T16:18:28.008Z,3.18
2019-04-14T16:19:28.005Z,3.20
2019-04-14T16:20:28.005Z,3.10
2019-04-14T16:21:28.027Z,3.05
2019-04-14T16:22:27.983Z,3.20
2019-04-14T16:23:28.019Z,3.16
2019-04-14T16:24:28.003Z,3.02
2019-04-14T16:25:27.967Z,3.02
2019-04-14T16:26:27.968Z,3.13
2019-04-14T16:27:27.995Z,3.18
2019-04-14T16:28:27.957Z,3.18
2019-04-14T16:29:27.992Z,3.21
2019-04-14T16:30:27.960Z,3.30
2019-04-14T16:31:27.938Z,3.33
2019-04-14T16:32:27.932Z,3.28
2019-04-14T16:33:27.933Z,3.21
2019-04-14T16:34:27.929Z,3.23
2019-04-14T16:35:27.951Z,3.34
2019-04-14T16:36:28.091Z,3.23
2019-04-14T16:37:27.901Z,3.20
2019-04-14T16:38:27.940Z,3.25
2019-04-14T16:39:27.916Z,3.23
2019-04-14T16:40:27.891Z,3.16
2019-04-14T16:41:27.887Z,3.10
2019-04-14T16:42:27.884Z,3.18
2019-04-14T16:43:27.879Z,3.10
2019-04-14T16:44:27.907Z,3.02
2019-04-14T16:45:27.873Z,3.12
2019-04-14T16:46:27.864Z,3.25
2019-04-14T16:47:27.858Z,3.16
2019-04-14T16:48:27.846Z,3.24
2019-04-14T16:49:27.885Z,3.30
2019-04-14T16:50:27.840Z,3.33
2019-04-14T16:51:27.827Z,3.27
2019-04-14T16:52:27.828Z,3.21
2019-04-14T16:53:27.821Z,3.27
2019-04-14T16:54:27.861Z,3.02
2019-04-14T16:55:29.554Z,3.15
2019-04-14T16:56:27.814Z,3.20
2019-04-14T16:57:29.184Z,3.15
2019-04-14T16:58:27.801Z,3.18
2019-04-14T16:59:27.841Z,3.15
2019-04-14T17:00:27.789Z,3.21
2019-04-14T17:01:27.785Z,3.16
2019-04-14T17:02:27.773Z,3.30
2019-04-14T17:03:27.823Z,3.23
2019-04-14T17:04:27.790Z,3.25
2019-04-14T17:05:27.761Z,3.27
2019-04-14T17:06:27.766Z,3.13
2019-04-14T17:07:27.751Z,3.18
2019-04-14T17:08:27.786Z,3.12
2019-04-14T17:09:27.778Z,3.13
2019-04-14T17:10:27.733Z,3.20
2019-04-14T17:11:27.730Z,3.28
2019-04-14T17:12:27.722Z,3.34
2019-04-14T17:13:27.734Z,3.27
2019-04-14T17:14:27.753Z,3.39
2019-04-14T17:15:27.742Z,3.30
2019-04-14T17:16:27.701Z,3.25
2019-04-14T17:17:27.722Z,3.30
2019-04-14T17:18:27.696Z,3.27
2019-04-14T17:19:27.708Z,3.27
2019-04-14T17:20:27.677Z,3.30
2019-04-14T17:21:27.709Z,3.27
2019-04-14T17:22:27.665Z,3.36
2019-04-14T17:23:27.668Z,3.30
2019-04-14T17:24:27.661Z,3.12
2019-04-14T17:25:27.704Z,3.18
2019-04-14T17:26:27.730Z,3.30
2019-04-14T17:27:27.719Z,3.30
2019-04-14T17:28:27.660Z,3.33
2019-04-14T17:29:27.634Z,3.18
2019-04-14T17:30:27.637Z,3.18
2019-04-14T17:31:27.623Z,3.13
2019-04-14T17:32:27.783Z,3.16
2019-04-14T17:33:27.901Z,3.21
2019-04-14T17:34:29.682Z,3.23
2019-04-14T17:35:29.727Z,3.27
2019-04-14T17:36:28.718Z,3.20
2019-04-14T17:37:28.404Z,3.28
2019-04-14T17:38:28.354Z,3.23
2019-04-14T17:39:31.618Z,3.23
2019-04-14T17:40:27.910Z,3.28
2019-04-14T17:41:27.577Z,3.43
2019-04-14T17:42:27.599Z,3.31
2019-04-14T17:43:27.564Z,3.25
2019-04-14T17:44:27.552Z,3.27
2019-04-14T17:45:27.580Z,3.28
2019-04-14T17:46:27.577Z,3.24
2019-04-14T17:47:27.544Z,3.16
2019-04-14T17:48:27.533Z,3.18
2019-04-14T17:49:27.530Z,3.10
2019-04-14T17:50:39.750Z,3.13
2019-04-14T17:51:27.562Z,3.15
2019-04-14T17:52:27.535Z,3.27
2019-04-14T17:53:27.511Z,3.12
2019-04-14T17:54:29.764Z,3.28
2019-04-14T17:55:27.553Z,3.21
2019-04-14T17:56:27.525Z,3.25
2019-04-14T17:57:27.526Z,2.98
2019-04-14T17:58:27.493Z,3.09
2019-04-14T17:59:27.480Z,3.12
2019-04-14T18:00:27.484Z,3.13
2019-04-14T18:01:27.503Z,3.16
2019-04-14T18:02:27.462Z,3.20
2019-04-14T18:03:27.460Z,3.20
2019-04-14T18:04:27.456Z,3.15
2019-04-14T18:05:27.450Z,3.20
2019-04-14T18:06:29.667Z,3.24
2019-04-14T18:07:27.630Z,3.24
2019-04-14T18:08:27.427Z,3.28
2019-04-14T18:09:28.966Z,3.24
2019-04-14T18:10:27.424Z,3.27
2019-04-14T18:11:27.447Z,3.25
2019-04-14T18:12:27.405Z,3.28
2019-04-14T18:13:27.412Z,3.31
2019-04-14T18:14:27.391Z,3.27
2019-04-14T18:15:27.431Z,3.25
2019-04-14T18:16:28.244Z,3.30
2019-04-14T18:17:27.421Z,3.42
2019-04-14T18:18:27.378Z,3.36
2019-04-14T18:19:27.376Z,3.24
2019-04-14T18:20:27.368Z,3.30
2019-04-14T18:21:27.384Z,3.30
2019-04-14T18:22:27.361Z,3.24
2019-04-14T18:23:27.383Z,3.33
2019-04-14T18:24:27.421Z,3.34
2019-04-14T18:25:27.363Z,3.36
2019-04-14T18:26:27.366Z,3.31
2019-04-14T18:27:27.318Z,3.33
2019-04-14T18:28:27.318Z,3.36
2019-04-14T18:29:27.360Z,3.42
2019-04-14T18:30:27.318Z,3.36
2019-04-14T18:31:28.733Z,3.43
2019-04-14T18:32:27.307Z,3.42
2019-04-14T18:33:27.306Z,3.39
2019-04-14T18:34:27.294Z,3.47
2019-04-14T18:35:27.321Z,3.46
2019-04-14T18:36:27.281Z,3.43
2019-04-14T18:37:27.323Z,3.36
2019-04-14T18:38:27.321Z,3.43
2019-04-14T18:39:27.271Z,3.36
2019-04-14T18:40:27.268Z,3.27
2019-04-14T18:41:27.253Z,3.25
2019-04-14T18:42:27.278Z,3.39
2019-04-14T18:43:27.244Z,3.31
2019-04-14T18:44:27.239Z,3.34
2019-04-14T18:45:27.244Z,3.46
2019-04-14T18:46:27.226Z,3.44
2019-04-14T18:47:27.271Z,3.49
2019-04-14T18:48:27.214Z,3.47
2019-04-14T18:49:27.224Z,3.50
2019-04-14T18:50:27.212Z,3.47
2019-04-14T18:51:27.207Z,3.43
2019-04-14T18:52:27.252Z,3.52
2019-04-14T18:53:27.233Z,3.50
2019-04-14T18:54:27.199Z,3.57
2019-04-14T18:55:27.178Z,3.68
2019-04-14T18:56:27.178Z,3.61
2019-04-14T18:57:27.183Z,3.53
2019-04-14T18:58:27.204Z,3.46
2019-04-14T18:59:27.274Z,3.58
2019-04-14T19:00:27.161Z,3.57
2019-04-14T19:01:27.149Z,3.65
2019-04-14T19:02:27.194Z,3.67
2019-04-14T19:03:27.178Z,3.62
2019-04-14T19:04:27.136Z,3.58
2019-04-14T19:05:27.145Z,3.57
2019-04-14T19:06:27.130Z,3.47
2019-04-14T19:07:27.138Z,3.60
2019-04-14T19:08:27.154Z,3.58
2019-04-14T19:09:27.110Z,3.64
2019-04-14T19:10:27.110Z,3.62
2019-04-14T19:11:27.109Z,3.75
2019-04-14T19:12:27.133Z,3.72
2019-04-14T19:13:27.095Z,3.68
2019-04-14T19:14:27.122Z,3.72
2019-04-14T19:15:27.076Z,3.96
2019-04-14T19:16:38.698Z,3.88
2019-04-14T19:17:27.077Z,3.94
2019-04-14T19:18:27.112Z,3.89
2019-04-14T19:19:27.221Z,3.96
2019-04-14T19:20:27.072Z,3.97
2019-04-14T19:21:27.053Z,4.00
2019-04-14T19:22:27.045Z,3.89
2019-04-14T19:23:27.089Z,3.97
2019-04-14T19:24:27.038Z,3.94
2019-04-14T19:25:27.037Z,3.94
2019-04-14T19:26:27.065Z,4.03
2019-04-14T19:27:27.025Z,4.03
2019-04-14T19:28:27.021Z,3.92
2019-04-14T19:29:27.852Z,3.98
2019-04-14T19:30:27.019Z,3.97
2019-04-14T19:31:27.015Z,3.90
2019-04-14T19:32:27.039Z,3.88
2019-04-14T19:33:26.997Z,3.96
2019-04-14T19:34:26.991Z,3.92
2019-04-14T19:35:27.061Z,4.00
2019-04-14T19:36:26.979Z,4.06
2019-04-14T19:37:26.972Z,4.01
2019-04-14T19:38:29.956Z,4.03
2019-04-14T19:39:27.036Z,4.03
2019-04-14T19:40:26.966Z,3.98
2019-04-14T19:41:26.961Z,3.89
2019-04-14T19:42:26.952Z,4.08
2019-04-14T19:43:26.952Z,4.04
2019-04-14T19:44:26.982Z,4.06
2019-04-14T19:45:26.973Z,4.10
2019-04-14T19:46:26.935Z,4.07
2019-04-14T19:47:26.974Z,4.04
2019-04-14T19:48:26.926Z,4.04
2019-04-14T19:49:26.911Z,4.08
2019-04-14T19:50:26.914Z,4.08
2019-04-14T19:51:26.915Z,4.03
2019-04-14T19:52:26.954Z,4.06
2019-04-14T19:53:26.897Z,4.07
2019-04-14T19:54:26.927Z,4.14
2019-04-14T19:55:26.896Z,4.12
2019-04-14T19:56:26.881Z,4.14
2019-04-14T19:57:26.883Z,4.18
2019-04-14T19:58:26.909Z,4.21
2019-04-14T19:59:26.868Z,4.24
2019-04-14T20:00:26.861Z,4.25
2019-04-14T20:01:26.862Z,4.16
2019-04-14T20:02:26.887Z,4.21
2019-04-14T20:03:26.848Z,4.16
2019-04-14T20:04:26.885Z,4.15
2019-04-14T20:05:26.844Z,4.16
2019-04-14T20:06:26.836Z,4.10
2019-04-14T20:07:47.840Z,4.04
2019-04-14T20:08:26.826Z,4.07
2019-04-14T20:09:26.858Z,4.04
2019-04-14T20:10:26.873Z,4.07
2019-04-14T20:11:26.812Z,4.15
2019-04-14T20:12:26.809Z,4.14
2019-04-14T20:13:26.806Z,4.12
2019-04-14T20:14:26.827Z,4.18
2019-04-14T20:15:27.741Z,4.24
2019-04-14T20:16:26.801Z,4.14
2019-04-14T20:17:26.785Z,4.14
2019-04-14T20:18:26.774Z,4.06
2019-04-14T20:19:26.803Z,3.94
2019-04-14T20:20:26.904Z,3.96
2019-04-14T20:21:26.760Z,4.10
2019-04-14T20:22:26.806Z,4.21
2019-04-14T20:23:26.775Z,4.10
2019-04-14T20:24:26.753Z,4.06
2019-04-14T20:25:33.715Z,4.16
2019-04-14T20:26:26.736Z,4.15
2019-04-14T20:27:26.780Z,4.12
2019-04-14T20:28:26.730Z,4.15
2019-04-14T20:29:26.724Z,4.10
2019-04-14T20:30:26.769Z,4.16
2019-04-14T20:31:26.717Z,4.08
2019-04-14T20:32:26.716Z,4.00
2019-04-14T20:33:26.760Z,4.08
2019-04-14T20:34:26.696Z,3.94
2019-04-14T20:35:26.692Z,3.90
2019-04-14T20:36:26.731Z,3.92
2019-04-14T20:37:26.678Z,4.00
2019-04-14T20:38:26.681Z,3.94
2019-04-14T20:39:26.668Z,3.96
2019-04-14T20:40:26.673Z,3.98
2019-04-14T20:41:26.657Z,3.92
2019-04-14T20:42:26.690Z,3.89
2019-04-14T20:43:26.652Z,3.92
2019-04-14T20:44:26.647Z,3.94
2019-04-14T20:45:26.639Z,4.10
2019-04-14T20:46:26.639Z,3.98
2019-04-14T20:47:26.662Z,3.92
2019-04-14T20:48:26.676Z,3.90
2019-04-14T20:49:26.623Z,3.89
2019-04-14T20:50:26.665Z,3.96
2019-04-14T20:51:26.615Z,3.94
2019-04-14T20:52:26.610Z,3.90
2019-04-14T20:53:26.624Z,3.97
2019-04-14T20:54:26.632Z,4.01
2019-04-14T20:55:26.590Z,3.94
2019-04-14T20:56:26.586Z,4.00
2019-04-14T20:57:26.628Z,3.90
2019-04-14T20:58:26.574Z,3.83
2019-04-14T20:59:26.566Z,3.83
2019-04-14T21:00:26.597Z,3.75
2019-04-14T21:01:26.554Z,3.68
2019-04-14T21:02:26.552Z,3.54
2019-04-14T21:03:26.560Z,3.62
2019-04-14T21:04:26.546Z,3.62
2019-04-14T21:05:26.575Z,3.76
2019-04-14T21:06:26.528Z,3.82
2019-04-14T21:07:26.537Z,3.83
2019-04-14T21:08:26.520Z,3.88
2019-04-14T21:09:26.522Z,3.89
2019-04-14T21:10:26.529Z,3.80
2019-04-14T21:11:26.535Z,3.82
2019-04-14T21:12:26.530Z,3.96
2019-04-14T21:13:26.502Z,3.96
2019-04-14T21:14:26.489Z,3.92
2019-04-14T21:15:26.486Z,3.94
2019-04-14T21:16:26.490Z,3.90
2019-04-14T21:17:26.528Z,3.79
2019-04-14T21:18:26.470Z,3.78
2019-04-14T21:19:26.469Z,3.79
2019-04-14T21:20:26.462Z,3.78
2019-04-14T21:21:26.539Z,3.76
2019-04-14T21:22:26.486Z,3.65
2019-04-14T21:23:26.444Z,3.61
2019-04-14T21:24:26.442Z,3.61
2019-04-14T21:25:26.438Z,3.42
2019-04-14T21:26:26.584Z,3.49
2019-04-14T21:27:26.483Z,3.50
2019-04-14T21:28:26.421Z,3.71
2019-04-14T21:29:26.414Z,3.80
2019-04-14T21:30:26.410Z,3.92
2019-04-14T21:31:26.402Z,4.00
2019-04-14T21:32:26.439Z,3.89
2019-04-14T21:33:28.266Z,4.07
2019-04-14T21:34:26.385Z,3.94
2019-04-14T21:35:26.384Z,3.96
2019-04-14T21:36:26.407Z,4.08
2019-04-14T21:37:26.380Z,4.00
2019-04-14T21:38:26.409Z,3.97
2019-04-14T21:39:26.356Z,4.01
2019-04-14T21:40:26.358Z,3.98
2019-04-14T21:41:26.391Z,3.92
2019-04-14T21:42:26.349Z,4.01
2019-04-14T21:43:26.345Z,3.94
2019-04-14T21:44:26.355Z,4.06
2019-04-14T21:45:26.358Z,4.01
2019-04-14T21:46:26.365Z,3.96
2019-04-14T21:47:26.340Z,3.76
2019-04-14T21:48:26.317Z,3.61
2019-04-14T21:49:26.318Z,3.53
2019-04-14T21:50:26.300Z,3.54
2019-04-14T21:51:26.333Z,3.65
2019-04-14T21:52:26.335Z,3.65
2019-04-14T21:53:26.292Z,3.82
2019-04-14T21:54:26.305Z,3.94
2019-04-14T21:55:26.283Z,3.96
2019-04-14T21:56:26.309Z,4.00
2019-04-14T21:57:26.277Z,3.94
2019-04-14T21:58:26.300Z,4.04
2019-04-14T21:59:26.267Z,4.03
2019-04-14T22:00:26.253Z,4.00
2019-04-14T22:01:26.248Z,3.88
2019-04-14T22:02:26.273Z,3.86
2019-04-14T22:03:26.269Z,3.82
2019-04-14T22:04:26.272Z,3.76
2019-04-14T22:05:26.225Z,3.76
2019-04-14T22:06:26.224Z,3.80
2019-04-14T22:07:26.218Z,3.78
2019-04-14T22:08:26.215Z,3.86
2019-04-14T22:09:26.244Z,3.88
2019-04-14T22:10:26.196Z,3.90
2019-04-14T22:11:26.198Z,4.04
2019-04-14T22:12:26.263Z,4.10
2019-04-14T22:13:26.188Z,3.92
2019-04-14T22:14:26.181Z,4.16
2019-04-14T22:15:26.177Z,4.12
2019-04-14T22:16:26.178Z,4.14
2019-04-14T22:17:26.214Z,4.19
2019-04-14T22:18:26.194Z,4.19
2019-04-14T22:19:26.156Z,4.12
2019-04-14T22:20:26.160Z,4.16
2019-04-14T22:21:26.185Z,4.28
2019-04-14T22:22:26.176Z,4.26
2019-04-14T22:23:26.136Z,4.19
2019-04-14T22:24:26.194Z,4.15
2019-04-14T22:25:26.124Z,4.18
2019-04-14T22:26:26.611Z,4.15
2019-04-14T22:27:26.151Z,4.18
2019-04-14T22:28:26.115Z,4.18
2019-04-14T22:29:26.122Z,4.10
2019-04-14T22:30:26.104Z,4.18
2019-04-14T22:31:26.113Z,4.14
2019-04-14T22:32:26.131Z,4.04
2019-04-14T22:33:26.090Z,4.14
2019-04-14T22:34:26.083Z,4.07
2019-04-14T22:35:26.074Z,3.90
2019-04-14T22:36:26.078Z,4.03
2019-04-14T22:37:26.086Z,4.07
2019-04-14T22:38:26.109Z,4.03
2019-04-14T22:39:26.102Z,4.00
2019-04-14T22:40:26.050Z,4.15
2019-04-14T22:41:26.043Z,4.08
2019-04-14T22:42:26.040Z,3.92
2019-04-14T22:43:26.070Z,3.76
2019-04-14T22:44:26.029Z,3.78
2019-04-14T22:45:26.064Z,3.76
2019-04-14T22:46:26.042Z,3.79
2019-04-14T22:47:26.018Z,3.79
2019-04-14T22:48:26.003Z,3.96
2019-04-14T22:49:26.005Z,3.98
2019-04-14T22:50:26.178Z,3.98
2019-04-14T22:51:26.860Z,3.94
2019-04-14T22:52:25.991Z,3.92
2019-04-14T22:53:26.012Z,3.90
2019-04-14T22:54:25.988Z,3.90
2019-04-14T22:55:25.972Z,3.86
2019-04-14T22:56:38.359Z,3.96
2019-04-14T22:57:25.999Z,3.92
2019-04-14T22:58:25.996Z,3.89
2019-04-14T22:59:25.958Z,3.89
2019-04-14T23:00:25.955Z,3.90
2019-04-14T23:01:25.956Z,3.97
2019-04-14T23:02:25.935Z,3.96
2019-04-14T23:03:25.967Z,3.92
2019-04-14T23:04:25.930Z,3.76
2019-04-14T23:05:25.930Z,3.75
2019-04-14T23:06:25.921Z,3.76
2019-04-14T23:07:25.915Z,3.89
2019-04-14T23:08:25.966Z,4.00
2019-04-14T23:09:25.903Z,4.01
2019-04-14T23:10:25.903Z,3.90
2019-04-14T23:11:25.890Z,3.67
2019-04-14T23:12:25.890Z,3.85
2019-04-14T23:13:25.918Z,3.76
2019-04-14T23:14:25.887Z,3.61
2019-04-14T23:15:25.867Z,3.64
2019-04-14T23:16:25.873Z,3.54
2019-04-14T23:17:25.853Z,3.58
2019-04-14T23:18:25.893Z,3.58
2019-04-14T23:19:25.878Z,3.57
2019-04-14T23:20:25.847Z,3.52
2019-04-14T23:21:25.838Z,3.72
2019-04-14T23:22:25.834Z,3.76
2019-04-14T23:23:25.826Z,3.78
2019-04-14T23:24:25.863Z,3.79
2019-04-14T23:25:25.823Z,3.98
2019-04-14T23:26:25.864Z,3.97
2019-04-14T23:27:25.817Z,3.97
2019-04-14T23:28:25.837Z,3.96
2019-04-14T23:29:25.811Z,4.01
2019-04-14T23:30:25.794Z,3.94
2019-04-14T23:31:25.794Z,3.92
2019-04-14T23:32:25.815Z,4.07
2019-04-14T23:33:25.778Z,4.19
2019-04-14T23:34:25.779Z,4.16
2019-04-14T23:35:25.777Z,4.14
2019-04-14T23:36:25.796Z,4.16
2019-04-14T23:37:25.758Z,4.15
2019-04-14T23:38:25.766Z,4.25
2019-04-14T23:39:25.810Z,4.15
2019-04-14T23:40:25.752Z,4.15
2019-04-14T23:41:25.739Z,4.22
2019-04-14T23:42:25.774Z,4.22
2019-04-14T23:43:25.725Z,4.24
2019-04-14T23:44:25.770Z,4.22
2019-04-14T23:45:25.733Z,4.18
2019-04-14T23:46:25.713Z,4.18
2019-04-14T23:47:25.710Z,4.16
2019-04-14T23:48:25.757Z,4.18
2019-04-14T23:49:25.748Z,4.15
2019-04-14T23:50:25.693Z,4.18
2019-04-14T23:51:25.687Z,4.29
2019-04-14T23:52:25.681Z,4.24
2019-04-14T23:53:25.679Z,4.26
2019-04-14T23:54:25.719Z,4.24
2019-04-14T23:55:25.660Z,4.22
2019-04-14T23:56:25.697Z,4.14
2019-04-14T23:57:25.658Z,4.15
2019-04-14T23:58:25.679Z,4.10
2019-04-14T23:59:25.645Z,4.06
